sensor_id;sensor_type;location;lat;lon;timestamp;temperature;humidity
20442;DHT22;10380;52.102;20.614;2023-04-24T00:01:19;13.40;99.90
20442;DHT22;10380;52.102;20.614;2023-04-24T00:03:48;13.40;99.90
20442;DHT22;10380;52.102;20.614;2023-04-24T00:06:15;13.30;99.90
20442;DHT22;10380;52.102;20.614;2023-04-24T00:08:43;13.40;99.90
20442;DHT22;10380;52.102;20.614;2023-04-24T00:11:10;13.30;99.90
20442;DHT22;10380;52.102;20.614;2023-04-24T00:13:38;13.30;99.90
20442;DHT22;10380;52.102;20.614;2023-04-24T00:16:06;13.30;99.90
20442;DHT22;10380;52.102;20.614;2023-04-24T00:18:34;13.20;99.90
20442;DHT22;10380;52.102;20.614;2023-04-24T00:21:01;13.20;99.90
20442;DHT22;10380;52.102;20.614;2023-04-24T00:23:28;13.20;99.90
20442;DHT22;10380;52.102;20.614;2023-04-24T00:25:56;13.20;99.90
20442;DHT22;10380;52.102;20.614;2023-04-24T00:28:23;13.10;99.90
20442;DHT22;10380;52.102;20.614;2023-04-24T00:30:50;13.00;99.90
20442;DHT22;10380;52.102;20.614;2023-04-24T00:33:18;13.00;99.90
20442;DHT22;10380;52.102;20.614;2023-04-24T00:35:45;13.00;99.90
20442;DHT22;10380;52.102;20.614;2023-04-24T00:38:11;13.00;99.90
20442;DHT22;10380;52.102;20.614;2023-04-24T00:40:38;12.90;99.90
20442;DHT22;10380;52.102;20.614;2023-04-24T00:43:05;12.80;99.90
20442;DHT22;10380;52.102;20.614;2023-04-24T00:45:35;12.80;99.90
20442;DHT22;10380;52.102;20.614;2023-04-24T00:48:02;12.70;99.90
20442;DHT22;10380;52.102;20.614;2023-04-24T00:50:31;12.70;99.90
20442;DHT22;10380;52.102;20.614;2023-04-24T00:52:59;12.70;99.90
20442;DHT22;10380;52.102;20.614;2023-04-24T00:55:26;12.60;99.90
20442;DHT22;10380;52.102;20.614;2023-04-24T00:57:53;12.60;99.90
20442;DHT22;10380;52.102;20.614;2023-04-24T01:00:21;12.60;99.90
20442;DHT22;10380;52.102;20.614;2023-04-24T01:02:49;12.60;99.90
20442;DHT22;10380;52.102;20.614;2023-04-24T01:05:16;12.50;99.90
20442;DHT22;10380;52.102;20.614;2023-04-24T01:07:45;12.50;99.90
20442;DHT22;10380;52.102;20.614;2023-04-24T01:10:13;12.50;99.90
20442;DHT22;10380;52.102;20.614;2023-04-24T01:12:41;12.50;99.90
20442;DHT22;10380;52.102;20.614;2023-04-24T01:15:09;12.40;99.90
20442;DHT22;10380;52.102;20.614;2023-04-24T01:17:36;12.40;99.90
20442;DHT22;10380;52.102;20.614;2023-04-24T01:20:04;12.30;99.90
20442;DHT22;10380;52.102;20.614;2023-04-24T01:22:33;12.20;99.90
20442;DHT22;10380;52.102;20.614;2023-04-24T01:25:02;12.20;99.90
20442;DHT22;10380;52.102;20.614;2023-04-24T01:27:30;12.20;99.90
20442;DHT22;10380;52.102;20.614;2023-04-24T01:29:57;12.20;99.90
20442;DHT22;10380;52.102;20.614;2023-04-24T01:32:25;12.10;99.90
20442;DHT22;10380;52.102;20.614;2023-04-24T01:34:54;12.10;99.90
20442;DHT22;10380;52.102;20.614;2023-04-24T01:37:21;12.10;99.90
20442;DHT22;10380;52.102;20.614;2023-04-24T01:39:48;12.10;99.90
20442;DHT22;10380;52.102;20.614;2023-04-24T01:42:16;12.00;99.90
20442;DHT22;10380;52.102;20.614;2023-04-24T01:44:43;11.90;99.90
20442;DHT22;10380;52.102;20.614;2023-04-24T01:47:10;11.90;99.90
20442;DHT22;10380;52.102;20.614;2023-04-24T01:49:38;11.90;99.90
20442;DHT22;10380;52.102;20.614;2023-04-24T01:52:05;11.80;99.90
20442;DHT22;10380;52.102;20.614;2023-04-24T01:54:32;11.80;99.90
20442;DHT22;10380;52.102;20.614;2023-04-24T01:57:00;11.80;99.90
20442;DHT22;10380;52.102;20.614;2023-04-24T01:59:28;11.80;99.90
20442;DHT22;10380;52.102;20.614;2023-04-24T02:01:56;11.80;99.90
20442;DHT22;10380;52.102;20.614;2023-04-24T02:04:23;11.70;99.90
20442;DHT22;10380;52.102;20.614;2023-04-24T02:06:50;11.70;99.90
20442;DHT22;10380;52.102;20.614;2023-04-24T02:09:18;11.70;99.90
20442;DHT22;10380;52.102;20.614;2023-04-24T02:11:45;11.70;99.90
20442;DHT22;10380;52.102;20.614;2023-04-24T02:14:12;11.60;99.90
20442;DHT22;10380;52.102;20.614;2023-04-24T02:16:39;11.60;99.90
20442;DHT22;10380;52.102;20.614;2023-04-24T02:19:06;11.60;99.90
20442;DHT22;10380;52.102;20.614;2023-04-24T02:21:33;11.60;99.90
20442;DHT22;10380;52.102;20.614;2023-04-24T02:24:02;11.50;99.90
20442;DHT22;10380;52.102;20.614;2023-04-24T02:26:29;11.50;99.90
20442;DHT22;10380;52.102;20.614;2023-04-24T02:28:58;11.50;99.90
20442;DHT22;10380;52.102;20.614;2023-04-24T02:31:25;11.50;99.90
20442;DHT22;10380;52.102;20.614;2023-04-24T02:33:52;11.50;99.90
20442;DHT22;10380;52.102;20.614;2023-04-24T02:36:18;11.40;99.90
20442;DHT22;10380;52.102;20.614;2023-04-24T02:38:45;11.40;99.90
20442;DHT22;10380;52.102;20.614;2023-04-24T02:41:12;11.40;99.90
20442;DHT22;10380;52.102;20.614;2023-04-24T02:43:39;11.40;99.90
20442;DHT22;10380;52.102;20.614;2023-04-24T02:46:06;11.40;99.90
20442;DHT22;10380;52.102;20.614;2023-04-24T02:48:33;11.40;99.90
20442;DHT22;10380;52.102;20.614;2023-04-24T02:51:00;11.40;99.90
20442;DHT22;10380;52.102;20.614;2023-04-24T02:53:27;11.30;99.90
20442;DHT22;10380;52.102;20.614;2023-04-24T02:55:54;11.40;99.90
20442;DHT22;10380;52.102;20.614;2023-04-24T02:58:21;11.40;99.90
20442;DHT22;10380;52.102;20.614;2023-04-24T03:00:48;11.40;99.90
20442;DHT22;10380;52.102;20.614;2023-04-24T03:03:15;11.30;99.90
20442;DHT22;10380;52.102;20.614;2023-04-24T03:05:42;11.40;99.90
20442;DHT22;10380;52.102;20.614;2023-04-24T03:08:10;11.40;99.90
20442;DHT22;10380;52.102;20.614;2023-04-24T03:10:37;11.40;99.90
20442;DHT22;10380;52.102;20.614;2023-04-24T03:13:04;11.40;99.90
20442;DHT22;10380;52.102;20.614;2023-04-24T03:15:31;11.40;99.90
20442;DHT22;10380;52.102;20.614;2023-04-24T03:17:58;11.40;99.90
20442;DHT22;10380;52.102;20.614;2023-04-24T03:20:25;11.40;99.90
20442;DHT22;10380;52.102;20.614;2023-04-24T03:22:52;11.30;99.90
20442;DHT22;10380;52.102;20.614;2023-04-24T03:25:19;11.40;99.90
20442;DHT22;10380;52.102;20.614;2023-04-24T03:27:46;11.40;99.90
20442;DHT22;10380;52.102;20.614;2023-04-24T03:30:13;11.40;99.90
20442;DHT22;10380;52.102;20.614;2023-04-24T03:32:40;11.50;99.90
20442;DHT22;10380;52.102;20.614;2023-04-24T03:35:07;11.50;99.90
20442;DHT22;10380;52.102;20.614;2023-04-24T03:37:35;11.50;99.90
20442;DHT22;10380;52.102;20.614;2023-04-24T03:40:02;11.50;99.90
20442;DHT22;10380;52.102;20.614;2023-04-24T03:42:29;11.50;99.90
20442;DHT22;10380;52.102;20.614;2023-04-24T03:44:56;11.50;99.90
20442;DHT22;10380;52.102;20.614;2023-04-24T03:47:23;11.60;99.90
20442;DHT22;10380;52.102;20.614;2023-04-24T03:49:50;11.60;99.90
20442;DHT22;10380;52.102;20.614;2023-04-24T03:52:17;11.60;99.90
20442;DHT22;10380;52.102;20.614;2023-04-24T03:54:44;11.70;99.90
20442;DHT22;10380;52.102;20.614;2023-04-24T03:57:11;11.70;99.90
20442;DHT22;10380;52.102;20.614;2023-04-24T03:59:38;11.80;99.90
20442;DHT22;10380;52.102;20.614;2023-04-24T04:02:05;11.80;99.90
20442;DHT22;10380;52.102;20.614;2023-04-24T04:04:32;11.90;99.90
20442;DHT22;10380;52.102;20.614;2023-04-24T04:06:59;12.00;99.90
20442;DHT22;10380;52.102;20.614;2023-04-24T04:09:29;12.00;99.90
20442;DHT22;10380;52.102;20.614;2023-04-24T04:11:56;12.10;99.90
20442;DHT22;10380;52.102;20.614;2023-04-24T04:14:23;12.20;99.90
20442;DHT22;10380;52.102;20.614;2023-04-24T04:16:50;12.30;99.90
20442;DHT22;10380;52.102;20.614;2023-04-24T04:19:20;12.30;99.90
20442;DHT22;10380;52.102;20.614;2023-04-24T04:21:47;12.40;99.90
20442;DHT22;10380;52.102;20.614;2023-04-24T04:24:19;12.40;99.90
20442;DHT22;10380;52.102;20.614;2023-04-24T04:26:51;12.50;99.90
20442;DHT22;10380;52.102;20.614;2023-04-24T04:29:18;12.50;99.90
20442;DHT22;10380;52.102;20.614;2023-04-24T04:31:45;12.60;99.90
20442;DHT22;10380;52.102;20.614;2023-04-24T04:34:13;12.60;99.90
20442;DHT22;10380;52.102;20.614;2023-04-24T04:36:41;12.70;99.90
20442;DHT22;10380;52.102;20.614;2023-04-24T04:39:09;12.70;99.90
20442;DHT22;10380;52.102;20.614;2023-04-24T04:41:36;12.70;99.90
20442;DHT22;10380;52.102;20.614;2023-04-24T04:44:04;12.80;99.90
20442;DHT22;10380;52.102;20.614;2023-04-24T04:46:31;12.80;99.90
20442;DHT22;10380;52.102;20.614;2023-04-24T04:49:03;12.90;99.90
20442;DHT22;10380;52.102;20.614;2023-04-24T04:51:30;12.90;99.90
20442;DHT22;10380;52.102;20.614;2023-04-24T04:53:57;13.00;99.90
20442;DHT22;10380;52.102;20.614;2023-04-24T04:56:24;13.10;99.90
20442;DHT22;10380;52.102;20.614;2023-04-24T04:58:52;13.20;99.90
20442;DHT22;10380;52.102;20.614;2023-04-24T05:01:19;13.30;99.90
20442;DHT22;10380;52.102;20.614;2023-04-24T05:03:45;13.40;99.90
20442;DHT22;10380;52.102;20.614;2023-04-24T05:06:13;13.60;99.90
20442;DHT22;10380;52.102;20.614;2023-04-24T05:08:39;13.70;99.90
20442;DHT22;10380;52.102;20.614;2023-04-24T05:11:06;13.90;99.90
20442;DHT22;10380;52.102;20.614;2023-04-24T05:13:33;14.00;99.90
20442;DHT22;10380;52.102;20.614;2023-04-24T05:16:06;14.20;99.90
20442;DHT22;10380;52.102;20.614;2023-04-24T05:18:34;14.40;99.90
20442;DHT22;10380;52.102;20.614;2023-04-24T05:21:01;14.60;99.90
20442;DHT22;10380;52.102;20.614;2023-04-24T05:23:28;14.80;99.90
20442;DHT22;10380;52.102;20.614;2023-04-24T05:25:55;14.90;99.90
20442;DHT22;10380;52.102;20.614;2023-04-24T05:28:22;15.10;99.90
20442;DHT22;10380;52.102;20.614;2023-04-24T05:30:49;15.30;99.90
20442;DHT22;10380;52.102;20.614;2023-04-24T05:33:16;15.60;99.90
20442;DHT22;10380;52.102;20.614;2023-04-24T05:35:43;15.80;99.90
20442;DHT22;10380;52.102;20.614;2023-04-24T05:38:13;16.00;99.90
20442;DHT22;10380;52.102;20.614;2023-04-24T05:40:41;16.20;99.90
20442;DHT22;10380;52.102;20.614;2023-04-24T05:43:07;16.40;99.90
20442;DHT22;10380;52.102;20.614;2023-04-24T05:45:34;16.60;99.90
20442;DHT22;10380;52.102;20.614;2023-04-24T05:48:04;16.70;99.90
20442;DHT22;10380;52.102;20.614;2023-04-24T05:50:32;16.90;99.90
20442;DHT22;10380;52.102;20.614;2023-04-24T05:53:02;17.00;99.90
20442;DHT22;10380;52.102;20.614;2023-04-24T05:55:30;17.10;99.90
20442;DHT22;10380;52.102;20.614;2023-04-24T05:57:58;17.20;99.90
20442;DHT22;10380;52.102;20.614;2023-04-24T06:00:25;17.40;99.90
20442;DHT22;10380;52.102;20.614;2023-04-24T06:02:52;17.50;99.90
20442;DHT22;10380;52.102;20.614;2023-04-24T06:05:22;17.70;99.90
20442;DHT22;10380;52.102;20.614;2023-04-24T06:07:49;17.80;99.90
20442;DHT22;10380;52.102;20.614;2023-04-24T06:10:16;18.00;99.90
20442;DHT22;10380;52.102;20.614;2023-04-24T06:12:44;18.20;99.90
20442;DHT22;10380;52.102;20.614;2023-04-24T06:15:11;18.30;99.90
20442;DHT22;10380;52.102;20.614;2023-04-24T06:17:38;18.50;99.90
20442;DHT22;10380;52.102;20.614;2023-04-24T06:20:05;18.60;99.90
20442;DHT22;10380;52.102;20.614;2023-04-24T06:22:33;18.80;99.90
20442;DHT22;10380;52.102;20.614;2023-04-24T06:25:00;19.10;99.90
20442;DHT22;10380;52.102;20.614;2023-04-24T06:27:28;19.30;99.90
20442;DHT22;10380;52.102;20.614;2023-04-24T06:29:56;19.60;99.90
20442;DHT22;10380;52.102;20.614;2023-04-24T06:32:23;19.80;99.90
20442;DHT22;10380;52.102;20.614;2023-04-24T06:34:52;20.10;99.90
20442;DHT22;10380;52.102;20.614;2023-04-24T06:37:20;20.40;99.90
20442;DHT22;10380;52.102;20.614;2023-04-24T06:39:47;20.60;99.90
20442;DHT22;10380;52.102;20.614;2023-04-24T06:42:14;20.90;99.90
20442;DHT22;10380;52.102;20.614;2023-04-24T06:44:41;21.10;99.90
20442;DHT22;10380;52.102;20.614;2023-04-24T06:47:09;21.20;99.90
20442;DHT22;10380;52.102;20.614;2023-04-24T06:49:37;21.30;99.90
20442;DHT22;10380;52.102;20.614;2023-04-24T06:52:05;21.30;99.90
20442;DHT22;10380;52.102;20.614;2023-04-24T06:54:33;21.40;99.90
20442;DHT22;10380;52.102;20.614;2023-04-24T06:57:00;21.50;99.90
20442;DHT22;10380;52.102;20.614;2023-04-24T06:59:27;21.50;99.90
20442;DHT22;10380;52.102;20.614;2023-04-24T07:01:55;21.60;99.90
20442;DHT22;10380;52.102;20.614;2023-04-24T07:04:22;21.70;99.90
20442;DHT22;10380;52.102;20.614;2023-04-24T07:06:49;21.70;99.90
20442;DHT22;10380;52.102;20.614;2023-04-24T07:09:18;21.80;99.90
20442;DHT22;10380;52.102;20.614;2023-04-24T07:11:45;21.80;99.90
20442;DHT22;10380;52.102;20.614;2023-04-24T07:14:12;21.80;99.90
20442;DHT22;10380;52.102;20.614;2023-04-24T07:16:39;21.90;99.90
20442;DHT22;10380;52.102;20.614;2023-04-24T07:19:06;21.90;99.90
20442;DHT22;10380;52.102;20.614;2023-04-24T07:21:33;22.00;99.90
20442;DHT22;10380;52.102;20.614;2023-04-24T07:24:02;22.00;99.90
20442;DHT22;10380;52.102;20.614;2023-04-24T07:26:30;22.00;99.90
20442;DHT22;10380;52.102;20.614;2023-04-24T07:28:57;21.90;99.90
20442;DHT22;10380;52.102;20.614;2023-04-24T07:31:24;21.90;99.60
20442;DHT22;10380;52.102;20.614;2023-04-24T07:33:50;21.80;99.10
20442;DHT22;10380;52.102;20.614;2023-04-24T07:36:17;21.80;98.90
20442;DHT22;10380;52.102;20.614;2023-04-24T07:38:45;21.70;98.80
20442;DHT22;10380;52.102;20.614;2023-04-24T07:41:13;21.60;98.60
20442;DHT22;10380;52.102;20.614;2023-04-24T07:43:41;21.50;99.50
20442;DHT22;10380;52.102;20.614;2023-04-24T07:46:08;21.40;98.70
20442;DHT22;10380;52.102;20.614;2023-04-24T07:48:36;21.40;98.60
20442;DHT22;10380;52.102;20.614;2023-04-24T07:51:03;21.40;98.10
20442;DHT22;10380;52.102;20.614;2023-04-24T07:53:30;21.40;98.30
20442;DHT22;10380;52.102;20.614;2023-04-24T07:55:57;21.50;98.30
20442;DHT22;10380;52.102;20.614;2023-04-24T07:58:24;21.50;97.30
20442;DHT22;10380;52.102;20.614;2023-04-24T08:00:51;21.50;96.40
20442;DHT22;10380;52.102;20.614;2023-04-24T08:03:18;21.50;95.90
20442;DHT22;10380;52.102;20.614;2023-04-24T08:05:47;21.50;95.60
20442;DHT22;10380;52.102;20.614;2023-04-24T08:08:14;21.50;95.50
20442;DHT22;10380;52.102;20.614;2023-04-24T08:10:41;21.40;95.80
20442;DHT22;10380;52.102;20.614;2023-04-24T08:13:08;21.50;96.00
20442;DHT22;10380;52.102;20.614;2023-04-24T08:15:35;21.50;95.80
20442;DHT22;10380;52.102;20.614;2023-04-24T08:18:02;21.60;95.90
20442;DHT22;10380;52.102;20.614;2023-04-24T08:20:29;21.60;95.70
20442;DHT22;10380;52.102;20.614;2023-04-24T08:22:56;21.60;95.60
20442;DHT22;10380;52.102;20.614;2023-04-24T08:25:23;21.50;95.50
20442;DHT22;10380;52.102;20.614;2023-04-24T08:27:51;21.40;95.60
20442;DHT22;10380;52.102;20.614;2023-04-24T08:30:19;21.40;95.80
20442;DHT22;10380;52.102;20.614;2023-04-24T08:32:47;21.30;96.20
20442;DHT22;10380;52.102;20.614;2023-04-24T08:35:14;21.20;96.50
20442;DHT22;10380;52.102;20.614;2023-04-24T08:37:41;21.10;96.70
20442;DHT22;10380;52.102;20.614;2023-04-24T08:40:15;21.00;96.90
20442;DHT22;10380;52.102;20.614;2023-04-24T08:42:43;20.90;96.90
20442;DHT22;10380;52.102;20.614;2023-04-24T08:45:12;20.90;97.20
20442;DHT22;10380;52.102;20.614;2023-04-24T08:47:40;20.90;97.30
20442;DHT22;10380;52.102;20.614;2023-04-24T08:50:08;20.90;97.20
20442;DHT22;10380;52.102;20.614;2023-04-24T08:52:36;20.90;97.20
20442;DHT22;10380;52.102;20.614;2023-04-24T08:55:04;21.00;96.90
20442;DHT22;10380;52.102;20.614;2023-04-24T08:57:32;21.00;96.60
20442;DHT22;10380;52.102;20.614;2023-04-24T09:00:00;21.00;96.50
20442;DHT22;10380;52.102;20.614;2023-04-24T09:02:27;21.10;96.60
20442;DHT22;10380;52.102;20.614;2023-04-24T09:04:56;21.10;96.70
20442;DHT22;10380;52.102;20.614;2023-04-24T09:07:24;21.10;96.30
20442;DHT22;10380;52.102;20.614;2023-04-24T09:09:54;21.20;96.60
20442;DHT22;10380;52.102;20.614;2023-04-24T09:12:21;21.30;95.80
20442;DHT22;10380;52.102;20.614;2023-04-24T09:14:49;21.40;95.80
20442;DHT22;10380;52.102;20.614;2023-04-24T09:17:17;21.40;95.40
20442;DHT22;10380;52.102;20.614;2023-04-24T09:19:43;21.50;95.40
20442;DHT22;10380;52.102;20.614;2023-04-24T09:22:11;21.60;95.10
20442;DHT22;10380;52.102;20.614;2023-04-24T09:24:39;21.60;94.80
20442;DHT22;10380;52.102;20.614;2023-04-24T09:27:07;21.60;94.50
20442;DHT22;10380;52.102;20.614;2023-04-24T09:29:36;21.50;94.60
20442;DHT22;10380;52.102;20.614;2023-04-24T09:32:20;21.60;94.60
20442;DHT22;10380;52.102;20.614;2023-04-24T09:35:11;21.60;94.60
20442;DHT22;10380;52.102;20.614;2023-04-24T09:40:19;21.80;95.00
20442;DHT22;10380;52.102;20.614;2023-04-24T09:42:50;21.90;95.80
20442;DHT22;10380;52.102;20.614;2023-04-24T09:45:18;22.00;95.90
20442;DHT22;10380;52.102;20.614;2023-04-24T09:47:45;22.10;95.80
20442;DHT22;10380;52.102;20.614;2023-04-24T09:50:16;22.10;95.80
20442;DHT22;10380;52.102;20.614;2023-04-24T09:52:47;22.20;96.00
20442;DHT22;10380;52.102;20.614;2023-04-24T09:55:20;22.20;96.10
20442;DHT22;10380;52.102;20.614;2023-04-24T09:58:08;22.30;96.00
20442;DHT22;10380;52.102;20.614;2023-04-24T10:00:35;22.30;96.20
20442;DHT22;10380;52.102;20.614;2023-04-24T10:03:04;22.40;96.30
20442;DHT22;10380;52.102;20.614;2023-04-24T10:05:35;22.50;96.30
20442;DHT22;10380;52.102;20.614;2023-04-24T10:08:09;22.60;96.00
20442;DHT22;10380;52.102;20.614;2023-04-24T10:10:42;22.70;95.90
20442;DHT22;10380;52.102;20.614;2023-04-24T10:13:10;22.70;95.60
20442;DHT22;10380;52.102;20.614;2023-04-24T10:15:38;22.80;95.60
20442;DHT22;10380;52.102;20.614;2023-04-24T10:18:08;22.80;95.60
20442;DHT22;10380;52.102;20.614;2023-04-24T10:20:37;23.00;95.70
20442;DHT22;10380;52.102;20.614;2023-04-24T10:23:05;23.10;95.90
20442;DHT22;10380;52.102;20.614;2023-04-24T10:25:35;23.10;96.10
20442;DHT22;10380;52.102;20.614;2023-04-24T10:28:03;23.20;95.90
20442;DHT22;10380;52.102;20.614;2023-04-24T10:30:34;23.20;95.60
20442;DHT22;10380;52.102;20.614;2023-04-24T10:33:07;23.20;95.60
20442;DHT22;10380;52.102;20.614;2023-04-24T10:35:39;23.30;95.60
20442;DHT22;10380;52.102;20.614;2023-04-24T10:38:11;23.30;95.40
20442;DHT22;10380;52.102;20.614;2023-04-24T10:40:39;23.40;95.30
20442;DHT22;10380;52.102;20.614;2023-04-24T10:43:08;23.50;95.30
20442;DHT22;10380;52.102;20.614;2023-04-24T10:45:38;23.60;95.40
20442;DHT22;10380;52.102;20.614;2023-04-24T10:48:07;23.80;94.90
20442;DHT22;10380;52.102;20.614;2023-04-24T10:50:52;23.80;94.50
20442;DHT22;10380;52.102;20.614;2023-04-24T10:53:23;23.90;94.20
20442;DHT22;10380;52.102;20.614;2023-04-24T10:56:06;24.00;93.60
20442;DHT22;10380;52.102;20.614;2023-04-24T10:58:45;24.00;93.80
20442;DHT22;10380;52.102;20.614;2023-04-24T11:03:51;23.90;93.90
20442;DHT22;10380;52.102;20.614;2023-04-24T11:06:37;23.80;94.70
20442;DHT22;10380;52.102;20.614;2023-04-24T11:09:10;23.70;94.90
20442;DHT22;10380;52.102;20.614;2023-04-24T11:11:46;23.60;94.30
20442;DHT22;10380;52.102;20.614;2023-04-24T11:14:16;23.60;94.40
20442;DHT22;10380;52.102;20.614;2023-04-24T11:16:54;23.60;94.30
20442;DHT22;10380;52.102;20.614;2023-04-24T11:19:25;23.70;94.60
20442;DHT22;10380;52.102;20.614;2023-04-24T11:22:00;23.80;94.10
20442;DHT22;10380;52.102;20.614;2023-04-24T11:24:48;24.10;93.20
20442;DHT22;10380;52.102;20.614;2023-04-24T11:27:18;24.30;92.50
20442;DHT22;10380;52.102;20.614;2023-04-24T11:32:30;24.80;91.60
20442;DHT22;10380;52.102;20.614;2023-04-24T11:35:00;25.00;91.50
20442;DHT22;10380;52.102;20.614;2023-04-24T11:37:33;25.30;90.70
20442;DHT22;10380;52.102;20.614;2023-04-24T11:40:00;25.40;90.10
20442;DHT22;10380;52.102;20.614;2023-04-24T11:42:28;25.40;87.90
20442;DHT22;10380;52.102;20.614;2023-04-24T11:45:00;25.40;86.40
20442;DHT22;10380;52.102;20.614;2023-04-24T11:47:30;25.20;85.60
20442;DHT22;10380;52.102;20.614;2023-04-24T11:49:58;25.10;85.80
20442;DHT22;10380;52.102;20.614;2023-04-24T11:52:26;24.90;85.80
20442;DHT22;10380;52.102;20.614;2023-04-24T11:54:54;24.80;85.30
20442;DHT22;10380;52.102;20.614;2023-04-24T11:57:25;24.50;84.80
20442;DHT22;10380;52.102;20.614;2023-04-24T12:00:01;24.30;85.00
20442;DHT22;10380;52.102;20.614;2023-04-24T12:02:31;24.10;85.10
20442;DHT22;10380;52.102;20.614;2023-04-24T12:04:58;23.90;85.30
20442;DHT22;10380;52.102;20.614;2023-04-24T12:07:25;23.70;85.60
20442;DHT22;10380;52.102;20.614;2023-04-24T12:09:59;23.50;85.80
20442;DHT22;10380;52.102;20.614;2023-04-24T12:12:29;23.40;87.20
20442;DHT22;10380;52.102;20.614;2023-04-24T12:14:57;23.30;86.90
20442;DHT22;10380;52.102;20.614;2023-04-24T12:17:30;23.20;86.10
20442;DHT22;10380;52.102;20.614;2023-04-24T12:22:50;23.50;88.30
20442;DHT22;10380;52.102;20.614;2023-04-24T12:25:18;24.10;88.90
20442;DHT22;10380;52.102;20.614;2023-04-24T12:27:46;24.70;87.50
20442;DHT22;10380;52.102;20.614;2023-04-24T12:30:16;25.50;86.00
20442;DHT22;10380;52.102;20.614;2023-04-24T12:32:48;26.40;84.40
20442;DHT22;10380;52.102;20.614;2023-04-24T12:35:23;27.20;82.70
20442;DHT22;10380;52.102;20.614;2023-04-24T12:37:50;27.80;80.90
20442;DHT22;10380;52.102;20.614;2023-04-24T12:40:18;28.30;78.90
20442;DHT22;10380;52.102;20.614;2023-04-24T12:42:51;28.40;78.00
20442;DHT22;10380;52.102;20.614;2023-04-24T12:45:18;28.00;76.10
20442;DHT22;10380;52.102;20.614;2023-04-24T12:47:46;27.50;77.40
20442;DHT22;10380;52.102;20.614;2023-04-24T12:50:15;26.90;79.00
20442;DHT22;10380;52.102;20.614;2023-04-24T12:52:43;26.30;79.70
20442;DHT22;10380;52.102;20.614;2023-04-24T12:55:10;25.80;81.00
20442;DHT22;10380;52.102;20.614;2023-04-24T12:57:40;25.50;82.30
20442;DHT22;10380;52.102;20.614;2023-04-24T13:00:07;25.20;81.30
20442;DHT22;10380;52.102;20.614;2023-04-24T13:02:35;25.20;82.20
20442;DHT22;10380;52.102;20.614;2023-04-24T13:05:03;25.20;81.60
20442;DHT22;10380;52.102;20.614;2023-04-24T13:07:30;25.30;81.90
20442;DHT22;10380;52.102;20.614;2023-04-24T13:09:57;25.60;82.00
20442;DHT22;10380;52.102;20.614;2023-04-24T13:12:24;25.90;81.20
20442;DHT22;10380;52.102;20.614;2023-04-24T13:14:53;26.20;80.30
20442;DHT22;10380;52.102;20.614;2023-04-24T13:17:20;26.40;79.70
20442;DHT22;10380;52.102;20.614;2023-04-24T13:19:50;26.20;79.60
20442;DHT22;10380;52.102;20.614;2023-04-24T13:22:18;26.00;79.50
20442;DHT22;10380;52.102;20.614;2023-04-24T13:24:45;25.60;80.70
20442;DHT22;10380;52.102;20.614;2023-04-24T13:27:12;25.20;81.80
20442;DHT22;10380;52.102;20.614;2023-04-24T13:29:39;24.40;83.10
20442;DHT22;10380;52.102;20.614;2023-04-24T13:32:06;23.80;84.10
20442;DHT22;10380;52.102;20.614;2023-04-24T13:34:33;23.20;84.40
20442;DHT22;10380;52.102;20.614;2023-04-24T13:37:01;23.00;85.30
20442;DHT22;10380;52.102;20.614;2023-04-24T13:39:30;22.80;85.60
20442;DHT22;10380;52.102;20.614;2023-04-24T13:41:58;22.80;85.40
20442;DHT22;10380;52.102;20.614;2023-04-24T13:44:25;23.10;85.70
20442;DHT22;10380;52.102;20.614;2023-04-24T13:46:53;23.20;85.90
20442;DHT22;10380;52.102;20.614;2023-04-24T13:49:21;23.40;85.30
20442;DHT22;10380;52.102;20.614;2023-04-24T13:51:48;23.60;84.60
20442;DHT22;10380;52.102;20.614;2023-04-24T13:54:15;23.60;83.60
20442;DHT22;10380;52.102;20.614;2023-04-24T13:56:42;23.60;82.90
20442;DHT22;10380;52.102;20.614;2023-04-24T13:59:09;23.50;82.90
20442;DHT22;10380;52.102;20.614;2023-04-24T14:01:36;23.30;82.70
20442;DHT22;10380;52.102;20.614;2023-04-24T14:04:03;23.20;83.20
20442;DHT22;10380;52.102;20.614;2023-04-24T14:06:30;23.10;82.30
20442;DHT22;10380;52.102;20.614;2023-04-24T14:08:58;23.10;82.30
20442;DHT22;10380;52.102;20.614;2023-04-24T14:11:26;23.10;82.10
20442;DHT22;10380;52.102;20.614;2023-04-24T14:13:54;23.10;80.40
20442;DHT22;10380;52.102;20.614;2023-04-24T14:16:24;23.00;77.40
20442;DHT22;10380;52.102;20.614;2023-04-24T14:18:51;22.90;75.10
20442;DHT22;10380;52.102;20.614;2023-04-24T14:21:18;23.00;74.00
20442;DHT22;10380;52.102;20.614;2023-04-24T14:23:45;23.00;72.30
20442;DHT22;10380;52.102;20.614;2023-04-24T14:26:12;23.10;72.40
20442;DHT22;10380;52.102;20.614;2023-04-24T14:28:39;23.20;72.30
20442;DHT22;10380;52.102;20.614;2023-04-24T14:31:06;23.30;72.40
20442;DHT22;10380;52.102;20.614;2023-04-24T14:33:33;23.50;73.50
20442;DHT22;10380;52.102;20.614;2023-04-24T14:36:00;23.60;73.70
20442;DHT22;10380;52.102;20.614;2023-04-24T14:38:29;23.70;74.50
20442;DHT22;10380;52.102;20.614;2023-04-24T14:40:58;23.80;74.50
20442;DHT22;10380;52.102;20.614;2023-04-24T14:43:33;23.90;74.90
20442;DHT22;10380;52.102;20.614;2023-04-24T14:46:02;24.00;75.00
20442;DHT22;10380;52.102;20.614;2023-04-24T14:48:30;24.10;75.20
20442;DHT22;10380;52.102;20.614;2023-04-24T14:50:57;24.20;74.50
20442;DHT22;10380;52.102;20.614;2023-04-24T14:53:25;24.30;74.30
20442;DHT22;10380;52.102;20.614;2023-04-24T14:55:52;24.30;74.30
20442;DHT22;10380;52.102;20.614;2023-04-24T14:58:19;24.30;74.00
20442;DHT22;10380;52.102;20.614;2023-04-24T15:00:46;24.30;73.80
20442;DHT22;10380;52.102;20.614;2023-04-24T15:03:16;24.40;73.10
20442;DHT22;10380;52.102;20.614;2023-04-24T15:05:44;24.40;73.00
20442;DHT22;10380;52.102;20.614;2023-04-24T15:08:11;24.40;72.30
20442;DHT22;10380;52.102;20.614;2023-04-24T15:10:38;24.50;72.00
20442;DHT22;10380;52.102;20.614;2023-04-24T15:13:05;24.50;72.10
20442;DHT22;10380;52.102;20.614;2023-04-24T15:15:32;24.50;71.40
20442;DHT22;10380;52.102;20.614;2023-04-24T15:17:59;24.60;71.20
20442;DHT22;10380;52.102;20.614;2023-04-24T15:20:26;24.60;71.20
20442;DHT22;10380;52.102;20.614;2023-04-24T15:22:55;24.70;71.20
20442;DHT22;10380;52.102;20.614;2023-04-24T15:25:22;25.00;71.10
20442;DHT22;10380;52.102;20.614;2023-04-24T15:27:49;25.20;70.90
20442;DHT22;10380;52.102;20.614;2023-04-24T15:30:16;25.50;70.70
20442;DHT22;10380;52.102;20.614;2023-04-24T15:32:44;25.90;69.70